sensor_id;sensor_type;location;lat;lon;timestamp;temperature;humidity
65478;SHT31;53678;39.642;22.430;2023-08-17T00:00:17;26.02;61.54
65478;SHT31;53678;39.642;22.430;2023-08-17T00:02:43;25.84;61.61
65478;SHT31;53678;39.642;22.430;2023-08-17T00:05:09;25.56;61.70
65478;SHT31;53678;39.642;22.430;2023-08-17T00:07:35;25.40;62.25
65478;SHT31;53678;39.642;22.430;2023-08-17T00:10:02;25.36;62.41
65478;SHT31;53678;39.642;22.430;2023-08-17T00:12:28;25.38;62.26
65478;SHT31;53678;39.642;22.430;2023-08-17T00:14:54;25.22;62.74
65478;SHT31;53678;39.642;22.430;2023-08-17T00:17:20;25.15;63.02
65478;SHT31;53678;39.642;22.430;2023-08-17T00:19:46;25.30;62.82
65478;SHT31;53678;39.642;22.430;2023-08-17T00:22:12;25.33;62.59
65478;SHT31;53678;39.642;22.430;2023-08-17T00:24:38;25.43;62.39
65478;SHT31;53678;39.642;22.430;2023-08-17T00:27:06;25.53;62.30
65478;SHT31;53678;39.642;22.430;2023-08-17T00:29:32;25.62;62.22
65478;SHT31;53678;39.642;22.430;2023-08-17T00:31:57;25.71;62.09
65478;SHT31;53678;39.642;22.430;2023-08-17T00:34:23;25.87;61.73
65478;SHT31;53678;39.642;22.430;2023-08-17T00:36:49;25.98;61.73
65478;SHT31;53678;39.642;22.430;2023-08-17T00:39:15;26.13;61.44
65478;SHT31;53678;39.642;22.430;2023-08-17T00:41:41;26.17;61.07
65478;SHT31;53678;39.642;22.430;2023-08-17T00:44:06;26.18;61.03
65478;SHT31;53678;39.642;22.430;2023-08-17T00:46:32;26.18;61.21
65478;SHT31;53678;39.642;22.430;2023-08-17T00:48:58;26.29;61.13
65478;SHT31;53678;39.642;22.430;2023-08-17T00:51:26;26.44;60.75
65478;SHT31;53678;39.642;22.430;2023-08-17T00:53:53;26.55;60.55
65478;SHT31;53678;39.642;22.430;2023-08-17T00:56:20;26.72;59.87
65478;SHT31;53678;39.642;22.430;2023-08-17T00:58:46;26.76;59.44
65478;SHT31;53678;39.642;22.430;2023-08-17T01:01:13;26.87;58.88
65478;SHT31;53678;39.642;22.430;2023-08-17T01:03:39;26.92;58.57
65478;SHT31;53678;39.642;22.430;2023-08-17T01:06:07;27.02;58.35
65478;SHT31;53678;39.642;22.430;2023-08-17T01:08:33;27.10;58.16
65478;SHT31;53678;39.642;22.430;2023-08-17T01:16:33;27.31;57.89
65478;SHT31;53678;39.642;22.430;2023-08-17T01:19:01;27.33;57.72
65478;SHT31;53678;39.642;22.430;2023-08-17T01:21:37;27.33;57.46
65478;SHT31;53678;39.642;22.430;2023-08-17T01:24:03;27.27;57.52
65478;SHT31;53678;39.642;22.430;2023-08-17T01:26:29;27.20;57.41
65478;SHT31;53678;39.642;22.430;2023-08-17T01:28:55;27.22;57.48
65478;SHT31;53678;39.642;22.430;2023-08-17T01:31:27;27.16;57.64
65478;SHT31;53678;39.642;22.430;2023-08-17T01:34:03;27.16;58.12
65478;SHT31;53678;39.642;22.430;2023-08-17T01:36:39;27.33;57.25
65478;SHT31;53678;39.642;22.430;2023-08-17T01:39:08;27.37;56.91
65478;SHT31;53678;39.642;22.430;2023-08-17T01:41:34;27.11;57.48
65478;SHT31;53678;39.642;22.430;2023-08-17T01:44:02;26.96;57.99
65478;SHT31;53678;39.642;22.430;2023-08-17T01:46:31;26.95;58.01
65478;SHT31;53678;39.642;22.430;2023-08-17T01:49:00;26.93;58.06
65478;SHT31;53678;39.642;22.430;2023-08-17T01:51:25;26.93;58.31
65478;SHT31;53678;39.642;22.430;2023-08-17T01:53:51;26.96;58.54
65478;SHT31;53678;39.642;22.430;2023-08-17T01:56:17;26.99;58.72
65478;SHT31;53678;39.642;22.430;2023-08-17T01:58:44;27.04;58.64
65478;SHT31;53678;39.642;22.430;2023-08-17T02:01:10;27.08;58.32
65478;SHT31;53678;39.642;22.430;2023-08-17T02:03:35;27.07;58.39
65478;SHT31;53678;39.642;22.430;2023-08-17T02:06:01;27.07;58.43
65478;SHT31;53678;39.642;22.430;2023-08-17T02:08:27;27.08;58.33
65478;SHT31;53678;39.642;22.430;2023-08-17T02:10:53;27.10;58.36
65478;SHT31;53678;39.642;22.430;2023-08-17T02:13:20;27.06;58.37
65478;SHT31;53678;39.642;22.430;2023-08-17T02:15:47;27.00;58.61
65478;SHT31;53678;39.642;22.430;2023-08-17T02:18:12;27.00;58.65
65478;SHT31;53678;39.642;22.430;2023-08-17T02:20:38;27.02;58.65
65478;SHT31;53678;39.642;22.430;2023-08-17T02:23:04;26.97;58.88
65478;SHT31;53678;39.642;22.430;2023-08-17T02:25:30;26.96;58.87
65478;SHT31;53678;39.642;22.430;2023-08-17T02:28:02;26.97;58.98
65478;SHT31;53678;39.642;22.430;2023-08-17T02:30:28;26.92;59.20
65478;SHT31;53678;39.642;22.430;2023-08-17T02:32:57;26.75;59.67
65478;SHT31;53678;39.642;22.430;2023-08-17T02:35:23;26.66;59.82
65478;SHT31;53678;39.642;22.430;2023-08-17T02:37:49;26.52;59.93
65478;SHT31;53678;39.642;22.430;2023-08-17T02:40:15;26.27;60.56
65478;SHT31;53678;39.642;22.430;2023-08-17T02:42:40;26.21;60.62
65478;SHT31;53678;39.642;22.430;2023-08-17T02:45:07;26.21;60.28
65478;SHT31;53678;39.642;22.430;2023-08-17T02:47:34;26.20;61.20
65478;SHT31;53678;39.642;22.430;2023-08-17T02:50:00;26.36;60.88
65478;SHT31;53678;39.642;22.430;2023-08-17T02:52:26;25.97;61.58
65478;SHT31;53678;39.642;22.430;2023-08-17T02:54:51;25.16;62.41
65478;SHT31;53678;39.642;22.430;2023-08-17T02:57:17;25.12;62.92
65478;SHT31;53678;39.642;22.430;2023-08-17T02:59:45;25.07;62.69
65478;SHT31;53678;39.642;22.430;2023-08-17T03:02:11;24.77;62.93
65478;SHT31;53678;39.642;22.430;2023-08-17T03:04:36;25.11;62.36
65478;SHT31;53678;39.642;22.430;2023-08-17T03:07:02;25.14;62.01
65478;SHT31;53678;39.642;22.430;2023-08-17T03:09:28;25.19;61.95
65478;SHT31;53678;39.642;22.430;2023-08-17T03:11:53;25.08;62.43
65478;SHT31;53678;39.642;22.430;2023-08-17T03:14:19;25.15;61.21
65478;SHT31;53678;39.642;22.430;2023-08-17T03:16:45;25.08;61.54
65478;SHT31;53678;39.642;22.430;2023-08-17T03:19:11;25.11;61.81
65478;SHT31;53678;39.642;22.430;2023-08-17T03:21:39;25.12;61.51
65478;SHT31;53678;39.642;22.430;2023-08-17T03:24:05;25.09;61.65
65478;SHT31;53678;39.642;22.430;2023-08-17T03:26:31;25.08;61.70
65478;SHT31;53678;39.642;22.430;2023-08-17T03:28:56;25.01;61.62
65478;SHT31;53678;39.642;22.430;2023-08-17T03:31:22;24.82;62.37
65478;SHT31;53678;39.642;22.430;2023-08-17T03:33:49;24.90;62.30
65478;SHT31;53678;39.642;22.430;2023-08-17T03:36:15;24.91;62.43
65478;SHT31;53678;39.642;22.430;2023-08-17T03:38:41;25.16;62.09
65478;SHT31;53678;39.642;22.430;2023-08-17T03:41:07;25.22;61.74
65478;SHT31;53678;39.642;22.430;2023-08-17T03:43:33;25.36;61.73
65478;SHT31;53678;39.642;22.430;2023-08-17T03:46:00;25.21;61.57
65478;SHT31;53678;39.642;22.430;2023-08-17T03:48:25;25.42;61.42
65478;SHT31;53678;39.642;22.430;2023-08-17T03:50:54;25.35;61.63
65478;SHT31;53678;39.642;22.430;2023-08-17T03:53:20;25.50;61.35
65478;SHT31;53678;39.642;22.430;2023-08-17T03:55:50;25.67;61.03
65478;SHT31;53678;39.642;22.430;2023-08-17T03:58:17;25.83;60.54
65478;SHT31;53678;39.642;22.430;2023-08-17T04:00:53;25.96;60.47
65478;SHT31;53678;39.642;22.430;2023-08-17T04:03:25;25.96;60.73
65478;SHT31;53678;39.642;22.430;2023-08-17T04:05:51;25.97;60.89
65478;SHT31;53678;39.642;22.430;2023-08-17T04:08:16;25.94;61.06
65478;SHT31;53678;39.642;22.430;2023-08-17T04:10:42;26.11;60.94
65478;SHT31;53678;39.642;22.430;2023-08-17T04:13:08;26.00;61.17
65478;SHT31;53678;39.642;22.430;2023-08-17T04:15:34;26.44;60.15
65478;SHT31;53678;39.642;22.430;2023-08-17T04:17:59;26.78;59.36
65478;SHT31;53678;39.642;22.430;2023-08-17T04:20:26;26.22;59.94
65478;SHT31;53678;39.642;22.430;2023-08-17T04:22:52;26.51;59.99
65478;SHT31;53678;39.642;22.430;2023-08-17T04:25:18;26.96;58.46
65478;SHT31;53678;39.642;22.430;2023-08-17T04:27:43;27.07;58.95
65478;SHT31;53678;39.642;22.430;2023-08-17T04:30:10;27.11;58.65
65478;SHT31;53678;39.642;22.430;2023-08-17T04:32:52;26.97;58.69
65478;SHT31;53678;39.642;22.430;2023-08-17T04:35:19;27.00;58.94
65478;SHT31;53678;39.642;22.430;2023-08-17T04:37:46;27.16;58.54
65478;SHT31;53678;39.642;22.430;2023-08-17T04:40:13;27.24;58.80
65478;SHT31;53678;39.642;22.430;2023-08-17T04:42:40;27.22;58.93
65478;SHT31;53678;39.642;22.430;2023-08-17T04:45:06;27.00;59.12
65478;SHT31;53678;39.642;22.430;2023-08-17T04:47:36;27.11;59.19
65478;SHT31;53678;39.642;22.430;2023-08-17T04:50:02;26.63;60.89
65478;SHT31;53678;39.642;22.430;2023-08-17T04:52:28;26.28;62.65
65478;SHT31;53678;39.642;22.430;2023-08-17T04:54:54;26.56;62.87
65478;SHT31;53678;39.642;22.430;2023-08-17T04:57:19;26.71;62.88
65478;SHT31;53678;39.642;22.430;2023-08-17T04:59:46;26.76;62.17
65478;SHT31;53678;39.642;22.430;2023-08-17T05:02:12;26.53;63.37
65478;SHT31;53678;39.642;22.430;2023-08-17T05:04:38;26.75;63.31
65478;SHT31;53678;39.642;22.430;2023-08-17T05:07:05;26.87;63.24
65478;SHT31;53678;39.642;22.430;2023-08-17T05:09:31;26.65;64.32
65478;SHT31;53678;39.642;22.430;2023-08-17T05:11:58;27.07;62.68
65478;SHT31;53678;39.642;22.430;2023-08-17T05:14:24;27.95;60.96
65478;SHT31;53678;39.642;22.430;2023-08-17T05:16:50;28.49;58.76
65478;SHT31;53678;39.642;22.430;2023-08-17T05:19:16;28.53;60.19
65478;SHT31;53678;39.642;22.430;2023-08-17T05:21:41;29.26;59.47
65478;SHT31;53678;39.642;22.430;2023-08-17T05:24:07;30.28;57.29
65478;SHT31;53678;39.642;22.430;2023-08-17T05:26:34;29.93;55.84
65478;SHT31;53678;39.642;22.430;2023-08-17T05:28:59;30.29;54.41
65478;SHT31;53678;39.642;22.430;2023-08-17T05:31:25;29.40;56.39
65478;SHT31;53678;39.642;22.430;2023-08-17T05:33:52;29.07;57.64
65478;SHT31;53678;39.642;22.430;2023-08-17T05:36:19;29.16;56.40
65478;SHT31;53678;39.642;22.430;2023-08-17T05:38:46;29.08;56.57
65478;SHT31;53678;39.642;22.430;2023-08-17T05:41:12;29.90;54.82
65478;SHT31;53678;39.642;22.430;2023-08-17T05:43:38;31.37;52.29
65478;SHT31;53678;39.642;22.430;2023-08-17T05:46:04;32.19;50.65
65478;SHT31;53678;39.642;22.430;2023-08-17T05:48:30;32.63;50.52
65478;SHT31;53678;39.642;22.430;2023-08-17T05:50:56;32.13;51.24
65478;SHT31;53678;39.642;22.430;2023-08-17T05:53:22;32.52;48.57
65478;SHT31;53678;39.642;22.430;2023-08-17T05:55:47;32.12;48.81
65478;SHT31;53678;39.642;22.430;2023-08-17T05:58:13;31.89;49.07
65478;SHT31;53678;39.642;22.430;2023-08-17T06:00:39;31.44;49.78
65478;SHT31;53678;39.642;22.430;2023-08-17T06:03:05;31.17;50.32
65478;SHT31;53678;39.642;22.430;2023-08-17T06:05:30;31.38;49.95
65478;SHT31;53678;39.642;22.430;2023-08-17T06:07:56;31.20;50.39
65478;SHT31;53678;39.642;22.430;2023-08-17T06:10:23;31.92;49.80
65478;SHT31;53678;39.642;22.430;2023-08-17T06:12:53;32.15;48.89
65478;SHT31;53678;39.642;22.430;2023-08-17T06:15:19;31.79;48.99
65478;SHT31;53678;39.642;22.430;2023-08-17T06:17:45;32.04;48.78
65478;SHT31;53678;39.642;22.430;2023-08-17T06:20:11;32.52;48.35
65478;SHT31;53678;39.642;22.430;2023-08-17T06:22:37;32.22;48.61
65478;SHT31;53678;39.642;22.430;2023-08-17T06:25:04;31.99;49.09
65478;SHT31;53678;39.642;22.430;2023-08-17T06:27:31;31.58;49.85
65478;SHT31;53678;39.642;22.430;2023-08-17T06:29:57;31.54;50.43
65478;SHT31;53678;39.642;22.430;2023-08-17T06:32:23;31.71;50.03
65478;SHT31;53678;39.642;22.430;2023-08-17T06:34:48;31.55;51.43
65478;SHT31;53678;39.642;22.430;2023-08-17T06:37:14;31.67;50.61
65478;SHT31;53678;39.642;22.430;2023-08-17T06:39:40;31.90;50.47
65478;SHT31;53678;39.642;22.430;2023-08-17T06:42:06;31.92;50.45
65478;SHT31;53678;39.642;22.430;2023-08-17T06:44:32;32.08;50.36
65478;SHT31;53678;39.642;22.430;2023-08-17T06:46:57;32.56;50.05
65478;SHT31;53678;39.642;22.430;2023-08-17T06:49:24;32.01;50.75
65478;SHT31;53678;39.642;22.430;2023-08-17T06:51:50;32.49;50.38
65478;SHT31;53678;39.642;22.430;2023-08-17T06:54:16;32.63;50.17
65478;SHT31;53678;39.642;22.430;2023-08-17T06:56:42;32.78;49.50
65478;SHT31;53678;39.642;22.430;2023-08-17T06:59:07;33.41;48.22
65478;SHT31;53678;39.642;22.430;2023-08-17T07:01:33;33.92;47.75
65478;SHT31;53678;39.642;22.430;2023-08-17T07:03:58;33.39;47.99
65478;SHT31;53678;39.642;22.430;2023-08-17T07:06:25;33.62;47.77
65478;SHT31;53678;39.642;22.430;2023-08-17T07:08:50;33.42;48.02
65478;SHT31;53678;39.642;22.430;2023-08-17T07:11:18;33.21;47.77
65478;SHT31;53678;39.642;22.430;2023-08-17T07:13:44;33.42;47.69
65478;SHT31;53678;39.642;22.430;2023-08-17T07:16:10;33.28;47.60
65478;SHT31;53678;39.642;22.430;2023-08-17T07:18:35;34.09;47.10
65478;SHT31;53678;39.642;22.430;2023-08-17T07:21:01;34.54;45.47
65478;SHT31;53678;39.642;22.430;2023-08-17T07:23:27;34.91;45.23
65478;SHT31;53678;39.642;22.430;2023-08-17T07:25:52;34.99;44.64
65478;SHT31;53678;39.642;22.430;2023-08-17T07:28:18;35.06;44.27
65478;SHT31;53678;39.642;22.430;2023-08-17T07:30:44;34.67;44.91
65478;SHT31;53678;39.642;22.430;2023-08-17T07:33:10;34.40;46.42
65478;SHT31;53678;39.642;22.430;2023-08-17T07:35:36;34.82;45.16
65478;SHT31;53678;39.642;22.430;2023-08-17T07:38:01;34.88;44.80
65478;SHT31;53678;39.642;22.430;2023-08-17T07:40:27;35.12;44.29
65478;SHT31;53678;39.642;22.430;2023-08-17T07:42:53;35.05;44.60
65478;SHT31;53678;39.642;22.430;2023-08-17T07:45:19;35.19;44.49
65478;SHT31;53678;39.642;22.430;2023-08-17T07:47:44;35.37;44.22
65478;SHT31;53678;39.642;22.430;2023-08-17T07:50:10;35.03;44.81
65478;SHT31;53678;39.642;22.430;2023-08-17T07:52:36;35.58;44.22
65478;SHT31;53678;39.642;22.430;2023-08-17T07:55:01;35.64;43.82
65478;SHT31;53678;39.642;22.430;2023-08-17T07:57:27;35.63;43.69
65478;SHT31;53678;39.642;22.430;2023-08-17T07:59:53;35.85;43.90
65478;SHT31;53678;39.642;22.430;2023-08-17T08:02:19;35.94;43.33
65478;SHT31;53678;39.642;22.430;2023-08-17T08:04:45;35.80;43.30
65478;SHT31;53678;39.642;22.430;2023-08-17T08:07:10;35.17;44.21
65478;SHT31;53678;39.642;22.430;2023-08-17T08:09:36;34.92;44.34
65478;SHT31;53678;39.642;22.430;2023-08-17T08:12:02;34.72;44.95
65478;SHT31;53678;39.642;22.430;2023-08-17T08:14:28;34.99;44.96
65478;SHT31;53678;39.642;22.430;2023-08-17T08:16:55;35.27;44.90
65478;SHT31;53678;39.642;22.430;2023-08-17T08:19:20;34.71;45.47
65478;SHT31;53678;39.642;22.430;2023-08-17T08:21:46;34.81;45.79
65478;SHT31;53678;39.642;22.430;2023-08-17T08:24:12;35.02;44.84
65478;SHT31;53678;39.642;22.430;2023-08-17T08:26:37;35.50;44.52
65478;SHT31;53678;39.642;22.430;2023-08-17T08:29:03;35.67;44.50
65478;SHT31;53678;39.642;22.430;2023-08-17T08:31:29;35.70;44.11
65478;SHT31;53678;39.642;22.430;2023-08-17T08:33:55;35.57;44.03
65478;SHT31;53678;39.642;22.430;2023-08-17T08:36:21;35.49;44.88
65478;SHT31;53678;39.642;22.430;2023-08-17T08:38:47;33.93;46.98
65478;SHT31;53678;39.642;22.430;2023-08-17T08:41:12;34.45;46.43
65478;SHT31;53678;39.642;22.430;2023-08-17T08:43:38;33.97;47.35
65478;SHT31;53678;39.642;22.430;2023-08-17T08:46:04;34.72;46.23
65478;SHT31;53678;39.642;22.430;2023-08-17T08:48:31;35.17;45.21
65478;SHT31;53678;39.642;22.430;2023-08-17T08:51:00;35.20;44.99
65478;SHT31;53678;39.642;22.430;2023-08-17T08:53:46;34.36;43.96
65478;SHT31;53678;39.642;22.430;2023-08-17T08:56:18;33.79;43.61
65478;SHT31;53678;39.642;22.430;2023-08-17T08:58:46;34.06;43.88
65478;SHT31;53678;39.642;22.430;2023-08-17T09:01:13;34.11;44.23
65478;SHT31;53678;39.642;22.430;2023-08-17T09:03:39;33.80;44.14
65478;SHT31;53678;39.642;22.430;2023-08-17T09:06:04;34.03;43.65
65478;SHT31;53678;39.642;22.430;2023-08-17T09:08:30;34.14;44.08
65478;SHT31;53678;39.642;22.430;2023-08-17T09:10:57;34.17;45.07
65478;SHT31;53678;39.642;22.430;2023-08-17T09:13:23;33.94;45.62
65478;SHT31;53678;39.642;22.430;2023-08-17T09:15:48;33.76;46.42
65478;SHT31;53678;39.642;22.430;2023-08-17T09:18:16;34.11;45.90
65478;SHT31;53678;39.642;22.430;2023-08-17T09:20:44;33.63;46.12
65478;SHT31;53678;39.642;22.430;2023-08-17T09:23:12;33.66;46.07
65478;SHT31;53678;39.642;22.430;2023-08-17T09:25:43;33.77;45.57
65478;SHT31;53678;39.642;22.430;2023-08-17T09:28:10;33.83;46.03
65478;SHT31;53678;39.642;22.430;2023-08-17T09:30:53;33.88;45.63
65478;SHT31;53678;39.642;22.430;2023-08-17T09:33:23;33.82;44.94
65478;SHT31;53678;39.642;22.430;2023-08-17T09:35:53;33.65;45.49
65478;SHT31;53678;39.642;22.430;2023-08-17T09:38:19;33.46;45.23
65478;SHT31;53678;39.642;22.430;2023-08-17T09:40:46;33.49;45.49
65478;SHT31;53678;39.642;22.430;2023-08-17T09:43:12;33.32;46.06
65478;SHT31;53678;39.642;22.430;2023-08-17T09:45:39;33.52;45.67
65478;SHT31;53678;39.642;22.430;2023-08-17T09:48:07;33.74;45.25
65478;SHT31;53678;39.642;22.430;2023-08-17T09:50:34;34.13;44.63
65478;SHT31;53678;39.642;22.430;2023-08-17T09:53:04;34.10;43.96
65478;SHT31;53678;39.642;22.430;2023-08-17T09:55:30;34.17;43.43
65478;SHT31;53678;39.642;22.430;2023-08-17T09:57:58;33.49;44.67
65478;SHT31;53678;39.642;22.430;2023-08-17T10:00:27;33.86;43.60
65478;SHT31;53678;39.642;22.430;2023-08-17T10:02:53;34.44;42.71
65478;SHT31;53678;39.642;22.430;2023-08-17T10:05:19;34.41;43.11
65478;SHT31;53678;39.642;22.430;2023-08-17T10:07:54;34.48;45.62
65478;SHT31;53678;39.642;22.430;2023-08-17T10:10:25;34.40;45.42
65478;SHT31;53678;39.642;22.430;2023-08-17T10:18:53;33.89;45.88
65478;SHT31;53678;39.642;22.430;2023-08-17T10:21:29;33.96;45.57
65478;SHT31;53678;39.642;22.430;2023-08-17T10:23:57;34.06;44.50
65478;SHT31;53678;39.642;22.430;2023-08-17T10:26:24;34.38;44.27
65478;SHT31;53678;39.642;22.430;2023-08-17T10:28:51;34.28;44.11
65478;SHT31;53678;39.642;22.430;2023-08-17T10:31:17;34.40;43.40
65478;SHT31;53678;39.642;22.430;2023-08-17T10:33:44;34.75;42.24
65478;SHT31;53678;39.642;22.430;2023-08-17T10:36:12;34.52;42.77
65478;SHT31;53678;39.642;22.430;2023-08-17T10:38:38;34.79;42.61
65478;SHT31;53678;39.642;22.430;2023-08-17T10:41:08;34.77;42.39
65478;SHT31;53678;39.642;22.430;2023-08-17T10:43:51;34.75;42.42
65478;SHT31;53678;39.642;22.430;2023-08-17T10:46:18;34.28;42.97
65478;SHT31;53678;39.642;22.430;2023-08-17T10:48:44;33.63;44.02
65478;SHT31;53678;39.642;22.430;2023-08-17T10:51:10;34.25;43.44
65478;SHT31;53678;39.642;22.430;2023-08-17T10:53:42;34.17;42.28
65478;SHT31;53678;39.642;22.430;2023-08-17T10:56:12;34.07;42.06
65478;SHT31;53678;39.642;22.430;2023-08-17T10:58:38;33.94;42.23
65478;SHT31;53678;39.642;22.430;2023-08-17T11:01:04;34.47;41.56
65478;SHT31;53678;39.642;22.430;2023-08-17T11:03:30;34.52;41.51
65478;SHT31;53678;39.642;22.430;2023-08-17T11:05:56;34.89;41.17
65478;SHT31;53678;39.642;22.430;2023-08-17T11:08:39;35.22;40.46
65478;SHT31;53678;39.642;22.430;2023-08-17T11:11:13;35.10;40.73
65478;SHT31;53678;39.642;22.430;2023-08-17T11:13:40;34.94;41.69
65478;SHT31;53678;39.642;22.430;2023-08-17T11:16:07;34.64;41.36
65478;SHT31;53678;39.642;22.430;2023-08-17T11:18:34;34.37;41.57
65478;SHT31;53678;39.642;22.430;2023-08-17T11:21:02;34.45;41.29
65478;SHT31;53678;39.642;22.430;2023-08-17T11:23:29;34.21;41.66
65478;SHT31;53678;39.642;22.430;2023-08-17T11:25:55;34.48;41.42
65478;SHT31;53678;39.642;22.430;2023-08-17T11:28:22;34.75;40.87
65478;SHT31;53678;39.642;22.430;2023-08-17T11:30:58;34.57;41.03
65478;SHT31;53678;39.642;22.430;2023-08-17T11:33:27;34.57;41.15
65478;SHT31;53678;39.642;22.430;2023-08-17T11:36:01;34.69;40.98
65478;SHT31;53678;39.642;22.430;2023-08-17T11:38:31;34.81;40.57
65478;SHT31;53678;39.642;22.430;2023-08-17T11:41:00;34.30;41.00
65478;SHT31;53678;39.642;22.430;2023-08-17T11:43:31;34.51;40.71
65478;SHT31;53678;39.642;22.430;2023-08-17T11:45:58;34.58;40.94
65478;SHT31;53678;39.642;22.430;2023-08-17T11:48:24;34.77;40.54
65478;SHT31;53678;39.642;22.430;2023-08-17T11:50:52;34.95;40.23
65478;SHT31;53678;39.642;22.430;2023-08-17T11:53:17;35.22;39.79
65478;SHT31;53678;39.642;22.430;2023-08-17T11:55:43;35.19;40.01
65478;SHT31;53678;39.642;22.430;2023-08-17T11:58:09;35.06;39.22
65478;SHT31;53678;39.642;22.430;2023-08-17T12:00:36;35.13;39.55
65478;SHT31;53678;39.642;22.430;2023-08-17T12:03:03;35.13;38.38
65478;SHT31;53678;39.642;22.430;2023-08-17T12:05:31;35.12;38.57
65478;SHT31;53678;39.642;22.430;2023-08-17T12:07:57;35.05;39.85
65478;SHT31;53678;39.642;22.430;2023-08-17T12:10:27;35.00;38.18
65478;SHT31;53678;39.642;22.430;2023-08-17T12:12:53;34.79;38.22
65478;SHT31;53678;39.642;22.430;2023-08-17T12:15:19;34.81;37.51
65478;SHT31;53678;39.642;22.430;2023-08-17T12:17:46;34.95;38.13
65478;SHT31;53678;39.642;22.430;2023-08-17T12:20:18;34.79;38.78
65478;SHT31;53678;39.642;22.430;2023-08-17T12:22:45;34.84;38.38
65478;SHT31;53678;39.642;22.430;2023-08-17T12:25:11;34.50;38.13
65478;SHT31;53678;39.642;22.430;2023-08-17T12:27:37;35.06;38.82
65478;SHT31;53678;39.642;22.430;2023-08-17T12:30:03;35.15;38.18
65478;SHT31;53678;39.642;22.430;2023-08-17T12:32:29;35.13;38.06
65478;SHT31;53678;39.642;22.430;2023-08-17T12:34:55;35.03;38.70
65478;SHT31;53678;39.642;22.430;2023-08-17T12:37:21;35.20;39.21
65478;SHT31;53678;39.642;22.430;2023-08-17T12:39:49;34.84;38.73
65478;SHT31;53678;39.642;22.430;2023-08-17T12:42:15;34.94;39.62
65478;SHT31;53678;39.642;22.430;2023-08-17T12:44:41;35.02;40.57
65478;SHT31;53678;39.642;22.430;2023-08-17T12:47:07;35.22;40.23
65478;SHT31;53678;39.642;22.430;2023-08-17T12:49:32;35.03;40.02
65478;SHT31;53678;39.642;22.430;2023-08-17T12:51:58;35.19;39.76
65478;SHT31;53678;39.642;22.430;2023-08-17T12:54:24;35.05;40.54
65478;SHT31;53678;39.642;22.430;2023-08-17T12:56:50;35.19;40.65
65478;SHT31;53678;39.642;22.430;2023-08-17T12:59:15;35.29;40.15
65478;SHT31;53678;39.642;22.430;2023-08-17T13:01:41;35.50;39.76
65478;SHT31;53678;39.642;22.430;2023-08-17T13:04:07;35.15;41.13
65478;SHT31;53678;39.642;22.430;2023-08-17T13:06:33;34.77;41.70
65478;SHT31;53678;39.642;22.430;2023-08-17T13:08:58;34.85;42.21
65478;SHT31;53678;39.642;22.430;2023-08-17T13:11:24;34.58;42.24
65478;SHT31;53678;39.642;22.430;2023-08-17T13:13:50;34.71;42.15
65478;SHT31;53678;39.642;22.430;2023-08-17T13:16:16;34.78;41.70
65478;SHT31;53678;39.642;22.430;2023-08-17T13:18:41;34.57;42.14
65478;SHT31;53678;39.642;22.430;2023-08-17T13:21:07;34.91;41.78
65478;SHT31;53678;39.642;22.430;2023-08-17T13:23:33;34.65;41.50
65478;SHT31;53678;39.642;22.430;2023-08-17T13:25:59;34.57;41.82
65478;SHT31;53678;39.642;22.430;2023-08-17T13:28:25;34.54;41.75
65478;SHT31;53678;39.642;22.430;2023-08-17T13:30:50;34.69;41.86
65478;SHT31;53678;39.642;22.430;2023-08-17T13:33:16;34.69;41.30
65478;SHT31;53678;39.642;22.430;2023-08-17T13:35:42;34.34;41.95
65478;SHT31;53678;39.642;22.430;2023-08-17T13:38:08;34.50;41.84
65478;SHT31;53678;39.642;22.430;2023-08-17T13:40:33;34.36;42.13
65478;SHT31;53678;39.642;22.430;2023-08-17T13:43:00;34.59;41.75
65478;SHT31;53678;39.642;22.430;2023-08-17T13:45:26;34.47;41.62
65478;SHT31;53678;39.642;22.430;2023-08-17T13:47:52;34.40;42.08
65478;SHT31;53678;39.642;22.430;2023-08-17T13:50:18;34.40;42.07
65478;SHT31;53678;39.642;22.430;2023-08-17T13:52:44;34.36;41.64
65478;SHT31;53678;39.642;22.430;2023-08-17T13:55:10;34.57;41.66
65478;SHT31;53678;39.642;22.430;2023-08-17T13:57:36;34.45;41.72
65478;SHT31;53678;39.642;22.430;2023-08-17T14:00:02;34.31;41.82
65478;SHT31;53678;39.642;22.430;2023-08-17T14:02:30;34.30;42.08
65478;SHT31;53678;39.642;22.430;2023-08-17T14:04:57;34.31;41.88
65478;SHT31;53678;39.642;22.430;2023-08-17T14:07:22;34.28;42.18
65478;SHT31;53678;39.642;22.430;2023-08-17T14:09:49;34.38;42.34
65478;SHT31;53678;39.642;22.430;2023-08-17T14:12:14;34.25;41.89
65478;SHT31;53678;39.642;22.430;2023-08-17T14:14:40;34.34;41.98
65478;SHT31;53678;39.642;22.430;2023-08-17T14:17:06;34.38;41.91
65478;SHT31;53678;39.642;22.430;2023-08-17T14:19:31;34.27;41.87
65478;SHT31;53678;39.642;22.430;2023-08-17T14:21:57;34.20;41.48
65478;SHT31;53678;39.642;22.430;2023-08-17T14:24:27;34.19;41.91
65478;SHT31;53678;39.642;22.430;2023-08-17T14:26:52;34.27;42.05
65478;SHT31;53678;39.642;22.430;2023-08-17T14:29:18;34.44;41.68
65478;SHT31;53678;39.642;22.430;2023-08-17T14:31:44;34.45;41.48
65478;SHT31;53678;39.642;22.430;2023-08-17T14:34:10;34.21;41.79
65478;SHT31;53678;39.642;22.430;2023-08-17T14:36:35;34.10;42.00
65478;SHT31;53678;39.642;22.430;2023-08-17T14:39:02;34.16;42.06
65478;SHT31;53678;39.642;22.430;2023-08-17T14:41:27;34.09;41.77
65478;SHT31;53678;39.642;22.430;2023-08-17T14:44:00;34.07;41.72
65478;SHT31;53678;39.642;22.430;2023-08-17T14:46:26;34.14;41.77
65478;SHT31;53678;39.642;22.430;2023-08-17T14:48:52;34.09;42.15
65478;SHT31;53678;39.642;22.430;2023-08-17T14:51:17;34.21;41.98
65478;SHT31;53678;39.642;22.430;2023-08-17T14:53:45;34.09;42.07
65478;SHT31;53678;39.642;22.430;2023-08-17T14:56:10;34.19;42.12
65478;SHT31;53678;39.642;22.430;2023-08-17T14:58:36;34.01;42.16
65478;SHT31;53678;39.642;22.430;2023-08-17T15:01:02;34.01;42.84
65478;SHT31;53678;39.642;22.430;2023-08-17T15:03:28;33.97;42.49
65478;SHT31;53678;39.642;22.430;2023-08-17T15:05:54;34.07;42.87
65478;SHT31;53678;39.642;22.430;2023-08-17T15:08:20;34.03;42.60
65478;SHT31;53678;39.642;22.430;2023-08-17T15:10:46;34.09;42.82
65478;SHT31;53678;39.642;22.430;2023-08-17T15:13:14;33.97;42.74
65478;SHT31;53678;39.642;22.430;2023-08-17T15:15:41;33.80;43.00
65478;SHT31;53678;39.642;22.430;2023-08-17T15:18:08;33.62;43.14
65478;SHT31;53678;39.642;22.430;2023-08-17T15:20:34;33.69;43.41
65478;SHT31;53678;39.642;22.430;2023-08-17T15:23:00;33.38;43.29